Terminal Aerodrome Forecast
Issued by NWS Sioux Falls, SD

Home | Current Version | Previous Version | Graphics & Text | Print | Product List | Glossary On
Versions: 1 2 3 4 5 6 7 8 9 10 11 12 13
175
FTUS43 KFSD 211122
TAFFSD
TAF
KFSD 211122Z 2112/2212 VRB05KT P6SM FEW150 BKN200
     FM211500 16009KT P6SM FEW150
     FM211900 15013KT P6SM FEW200
     FM220200 15009KT P6SM SKC=

USA.gov is the U.S. government's official web portal to all federal, state and local government web resources and services.